createdAt,value
2023-07-28T00:01:13.774Z,2.90
2023-07-28T00:03:59.257Z,3.22
2023-07-28T00:06:44.790Z,3.21
2023-07-28T00:09:30.166Z,2.80
2023-07-28T00:12:15.588Z,2.70
2023-07-28T00:15:00.996Z,2.87
2023-07-28T00:17:46.550Z,2.87
2023-07-28T00:20:32.105Z,2.92
2023-07-28T00:23:17.534Z,2.73
2023-07-28T00:26:02.550Z,2.75
2023-07-28T00:28:47.541Z,2.83
2023-07-28T00:31:32.697Z,2.82
2023-07-28T00:34:17.685Z,2.66
2023-07-28T00:37:03.083Z,2.74
2023-07-28T00:39:48.667Z,2.94
2023-07-28T00:42:35.328Z,2.82
2023-07-28T00:45:21.986Z,2.94
2023-07-28T00:48:07.141Z,2.61
2023-07-28T00:50:52.603Z,2.63
2023-07-28T00:53:37.692Z,2.67
2023-07-28T00:56:23.121Z,3.08
2023-07-28T00:59:08.069Z,2.89
2023-07-28T01:01:52.990Z,2.89
2023-07-28T01:04:38.675Z,2.94
2023-07-28T01:07:24.106Z,3.24
2023-07-28T01:10:09.716Z,2.92
2023-07-28T01:12:55.287Z,2.92
2023-07-28T01:15:40.745Z,2.72
2023-07-28T01:18:26.245Z,2.64
2023-07-28T01:21:11.789Z,2.71
2023-07-28T01:23:57.150Z,2.76
2023-07-28T01:26:42.312Z,2.55
2023-07-28T01:29:27.639Z,2.16
2023-07-28T01:32:16.246Z,2.17
2023-07-28T01:35:01.772Z,2.43
2023-07-28T01:37:46.863Z,2.27
2023-07-28T01:40:32.084Z,2.40
2023-07-28T01:43:17.574Z,2.15
2023-07-28T01:46:05.120Z,2.26
2023-07-28T01:48:50.669Z,2.24
2023-07-28T01:51:36.051Z,2.08
2023-07-28T01:54:21.088Z,2.01
2023-07-28T01:57:06.490Z,2.29
2023-07-28T01:59:51.919Z,2.28
2023-07-28T02:02:37.480Z,1.86
2023-07-28T02:05:22.937Z,1.85
2023-07-28T02:08:08.027Z,1.99
2023-07-28T02:10:53.494Z,2.14
2023-07-28T02:13:38.938Z,2.14
2023-07-28T02:16:23.945Z,2.10
2023-07-28T02:19:09.514Z,1.87
2023-07-28T02:21:55.139Z,1.89
2023-07-28T02:24:40.525Z,2.07
2023-07-28T02:27:26.108Z,1.91
2023-07-28T02:30:11.528Z,2.03
2023-07-28T02:32:57.134Z,1.79
2023-07-28T02:35:42.615Z,2.00
2023-07-28T02:38:27.957Z,1.86
2023-07-28T02:41:13.435Z,2.01
2023-07-28T02:43:58.741Z,2.02
2023-07-28T02:46:44.198Z,1.87
2023-07-28T02:49:29.491Z,1.76
2023-07-28T02:52:14.415Z,2.00
2023-07-28T02:54:59.878Z,1.90
2023-07-28T02:57:45.305Z,1.99
2023-07-28T03:00:33.932Z,2.03
2023-07-28T03:03:19.026Z,1.92
2023-07-28T03:06:04.521Z,2.00
2023-07-28T03:08:49.909Z,1.92
2023-07-28T03:11:34.776Z,2.01
2023-07-28T03:14:20.387Z,2.09
2023-07-28T03:17:05.996Z,1.97
2023-07-28T03:19:51.457Z,1.87
2023-07-28T03:22:37.232Z,1.96
2023-07-28T03:25:22.671Z,2.02
2023-07-28T03:28:07.708Z,2.10
2023-07-28T03:30:53.168Z,1.98
2023-07-28T03:33:38.042Z,1.97
2023-07-28T03:36:23.044Z,2.10
2023-07-28T03:39:08.473Z,1.94
2023-07-28T03:41:53.575Z,1.86
2023-07-28T03:44:39.019Z,1.97
2023-07-28T03:47:24.514Z,2.08
2023-07-28T03:50:09.974Z,2.15
2023-07-28T03:52:55.432Z,2.03
2023-07-28T03:55:41.070Z,2.19
2023-07-28T03:58:26.452Z,1.78
2023-07-28T04:01:12.178Z,2.09
2023-07-28T04:03:57.311Z,2.11
2023-07-28T04:06:42.776Z,2.22
2023-07-28T04:09:28.199Z,1.90
2023-07-28T04:12:13.137Z,2.15
2023-07-28T04:14:58.716Z,2.12
2023-07-28T04:17:44.241Z,1.99
2023-07-28T04:20:29.634Z,2.10
2023-07-28T04:23:15.334Z,2.21
2023-07-28T04:26:00.608Z,2.00
2023-07-28T04:28:45.650Z,2.14
2023-07-28T04:31:30.712Z,2.22
2023-07-28T04:34:16.062Z,2.30
2023-07-28T04:37:01.604Z,2.12
2023-07-28T04:39:47.079Z,2.17
2023-07-28T04:42:32.248Z,2.10
2023-07-28T04:45:17.760Z,2.20
2023-07-28T04:48:04.506Z,2.22
2023-07-28T04:50:49.868Z,2.27
2023-07-28T04:53:35.254Z,2.17
2023-07-28T04:56:20.384Z,2.12
2023-07-28T04:59:05.445Z,2.39
2023-07-28T05:01:50.944Z,2.40
2023-07-28T05:04:36.103Z,2.17
2023-07-28T05:07:21.449Z,2.34
2023-07-28T05:10:08.092Z,2.35
2023-07-28T05:12:54.213Z,2.22
2023-07-28T05:15:40.007Z,2.45
2023-07-28T05:18:25.609Z,2.36
2023-07-28T05:21:10.727Z,2.42
2023-07-28T05:23:55.941Z,2.50
2023-07-28T05:26:43.237Z,2.33
2023-07-28T05:29:28.440Z,2.47
2023-07-28T05:32:14.050Z,2.30
2023-07-28T05:34:59.614Z,2.39
2023-07-28T05:37:44.806Z,2.46
2023-07-28T05:40:29.957Z,2.57
2023-07-28T05:43:15.415Z,2.60
2023-07-28T05:46:00.511Z,2.50
2023-07-28T05:48:46.018Z,2.85
2023-07-28T05:51:31.556Z,2.41
2023-07-28T05:54:16.853Z,2.46
2023-07-28T05:57:02.473Z,2.37
2023-07-28T05:59:47.397Z,2.47
2023-07-28T06:02:33.065Z,2.52
2023-07-28T06:05:19.181Z,2.33
2023-07-28T06:08:04.469Z,2.68
2023-07-28T06:10:50.219Z,2.62
2023-07-28T06:13:35.770Z,2.86
2023-07-28T06:16:21.299Z,2.54
2023-07-28T06:19:06.863Z,2.69
2023-07-28T06:21:52.409Z,2.43
2023-07-28T06:24:38.178Z,2.44
2023-07-28T06:27:23.485Z,2.57
2023-07-28T06:30:08.676Z,2.46
2023-07-28T06:32:53.969Z,2.80
2023-07-28T06:35:39.328Z,2.87
2023-07-28T06:38:24.864Z,2.63
2023-07-28T06:41:09.772Z,2.80
2023-07-28T06:43:55.403Z,2.55
2023-07-28T06:46:40.894Z,2.70
2023-07-28T06:49:26.412Z,2.60
2023-07-28T06:52:11.478Z,2.60
2023-07-28T06:54:56.797Z,2.50
2023-07-28T06:57:42.388Z,2.48
2023-07-28T07:00:27.727Z,2.48
2023-07-28T07:03:13.191Z,2.46
2023-07-28T07:05:58.713Z,2.41
2023-07-28T07:08:44.088Z,2.48
2023-07-28T07:11:29.478Z,2.49
2023-07-28T07:14:14.949Z,2.45
2023-07-28T07:17:00.387Z,2.41
2023-07-28T07:19:48.754Z,2.62
2023-07-28T07:22:34.282Z,2.36
2023-07-28T07:25:19.263Z,2.72
2023-07-28T07:28:04.764Z,2.50
2023-07-28T07:30:50.214Z,2.58
2023-07-28T07:33:35.605Z,2.58
2023-07-28T07:36:20.897Z,2.69
2023-07-28T07:39:06.761Z,2.84
2023-07-28T07:41:51.681Z,2.58
2023-07-28T07:44:37.377Z,2.68
2023-07-28T07:47:22.634Z,2.82
2023-07-28T07:50:08.096Z,2.68
2023-07-28T07:52:53.680Z,2.77
2023-07-28T07:55:39.181Z,2.66
2023-07-28T07:58:24.507Z,2.61
2023-07-28T08:01:09.485Z,2.49
2023-07-28T08:03:54.829Z,2.96
2023-07-28T08:06:39.837Z,2.93
2023-07-28T08:09:24.879Z,2.97
2023-07-28T08:12:10.399Z,2.80
2023-07-28T08:14:57.289Z,2.86
2023-07-28T08:17:42.687Z,3.08
2023-07-28T08:20:28.467Z,3.22
2023-07-28T08:23:13.820Z,3.15
2023-07-28T08:25:59.280Z,3.01
2023-07-28T08:28:44.336Z,3.71
2023-07-28T08:31:29.979Z,3.49
2023-07-28T08:34:15.446Z,3.34
2023-07-28T08:37:00.982Z,3.33
2023-07-28T08:39:46.233Z,3.20
2023-07-28T08:42:31.078Z,3.08
2023-07-28T08:45:16.453Z,3.37
2023-07-28T08:48:02.049Z,3.01
2023-07-28T08:50:47.535Z,3.30
2023-07-28T08:53:32.573Z,3.31
2023-07-28T08:56:18.057Z,3.32
2023-07-28T08:59:03.645Z,3.38
2023-07-28T09:01:49.106Z,3.29
2023-07-28T09:04:34.464Z,3.20
2023-07-28T09:07:20.005Z,3.13
2023-07-28T09:10:05.311Z,3.32
2023-07-28T09:12:50.972Z,3.24
2023-07-28T09:15:36.323Z,3.08
2023-07-28T09:18:21.957Z,3.19
2023-07-28T09:21:07.550Z,3.44
2023-07-28T09:23:52.836Z,3.29
2023-07-28T09:26:38.525Z,3.44
2023-07-28T09:29:23.932Z,3.29
2023-07-28T09:32:09.560Z,3.34
2023-07-28T09:34:54.903Z,3.39
2023-07-28T09:37:40.261Z,3.41
2023-07-28T09:40:25.554Z,3.32
2023-07-28T09:43:12.060Z,3.27
2023-07-28T09:45:57.418Z,3.39
2023-07-28T09:48:42.728Z,3.37
2023-07-28T09:51:28.218Z,3.38
2023-07-28T09:54:13.718Z,3.28
2023-07-28T09:56:58.713Z,3.46
2023-07-28T09:59:44.095Z,3.44
2023-07-28T10:02:29.200Z,3.39
2023-07-28T10:05:14.561Z,3.35
2023-07-28T10:08:02.909Z,3.56
2023-07-28T10:10:48.471Z,3.67
2023-07-28T10:13:33.897Z,3.61
2023-07-28T10:16:19.542Z,4.01
2023-07-28T10:19:05.049Z,3.76
2023-07-28T10:21:50.527Z,3.85
2023-07-28T10:24:35.913Z,3.66
2023-07-28T10:27:21.394Z,3.99
2023-07-28T10:30:06.859Z,3.75
2023-07-28T10:32:52.564Z,3.83
2023-07-28T10:35:38.047Z,3.75
2023-07-28T10:38:26.466Z,3.76
2023-07-28T10:41:11.872Z,3.54
2023-07-28T10:43:56.945Z,3.76
2023-07-28T10:46:42.553Z,3.53
2023-07-28T10:49:28.066Z,3.74
2023-07-28T10:52:12.928Z,3.69
2023-07-28T10:54:58.444Z,3.56
2023-07-28T10:57:43.879Z,3.69
2023-07-28T11:00:29.293Z,3.70
2023-07-28T11:03:15.067Z,3.78
2023-07-28T11:06:00.157Z,3.58
2023-07-28T11:08:45.584Z,3.84
2023-07-28T11:11:30.665Z,3.72
2023-07-28T11:14:16.759Z,4.05
2023-07-28T11:17:02.009Z,3.80
2023-07-28T11:19:47.300Z,3.57
2023-07-28T11:22:32.673Z,3.85
2023-07-28T11:25:18.167Z,3.79
2023-07-28T11:28:03.207Z,4.19
2023-07-28T11:30:48.851Z,3.76
2023-07-28T11:33:34.332Z,4.06
2023-07-28T11:36:22.286Z,4.09
2023-07-28T11:39:07.697Z,4.18
2023-07-28T11:41:53.137Z,3.96
2023-07-28T11:44:38.080Z,3.99
2023-07-28T11:47:23.468Z,4.26
2023-07-28T11:50:08.961Z,3.97
2023-07-28T11:52:54.474Z,4.08
2023-07-28T11:55:40.044Z,4.09
2023-07-28T11:58:25.654Z,4.18
2023-07-28T12:01:11.092Z,3.90
2023-07-28T12:03:56.763Z,4.06
2023-07-28T12:06:55.761Z,4.03
2023-07-28T12:09:42.347Z,3.82
2023-07-28T12:12:27.386Z,3.95
2023-07-28T12:20:49.211Z,3.86
2023-07-28T12:26:22.665Z,3.78
2023-07-28T12:29:11.525Z,3.82
2023-07-28T12:32:02.789Z,3.50
2023-07-28T12:34:51.835Z,3.73
2023-07-28T12:48:52.710Z,3.66
2023-07-28T12:51:38.193Z,3.75
2023-07-28T12:54:23.149Z,3.65
2023-07-28T13:02:44.845Z,3.81
2023-07-28T13:05:30.134Z,3.53
2023-07-28T13:08:15.600Z,3.66
2023-07-28T13:13:48.886Z,3.60
2023-07-28T13:16:34.664Z,3.62
2023-07-28T13:19:20.089Z,3.70
2023-07-28T13:22:05.620Z,3.54
2023-07-28T13:24:51.044Z,3.73
2023-07-28T13:27:36.159Z,3.51
2023-07-28T13:30:21.781Z,3.59
2023-07-28T13:33:07.294Z,3.64
2023-07-28T13:35:52.706Z,3.60
2023-07-28T13:38:38.052Z,3.30
2023-07-28T13:41:23.603Z,3.45
2023-07-28T13:44:15.057Z,3.36
2023-07-28T13:47:00.846Z,3.42
2023-07-28T13:52:34.313Z,3.33
2023-07-28T13:55:40.610Z,3.64
2023-07-28T13:58:25.467Z,3.35
2023-07-28T14:01:11.147Z,3.38
2023-07-28T14:03:56.628Z,3.61
2023-07-28T14:06:41.928Z,3.36
2023-07-28T14:09:27.516Z,3.65
2023-07-28T14:12:12.958Z,3.53
2023-07-28T14:14:58.454Z,3.19
2023-07-28T14:17:44.011Z,3.53
2023-07-28T14:20:29.385Z,3.30
2023-07-28T14:23:14.764Z,3.37
2023-07-28T14:26:00.365Z,3.48
2023-07-28T14:28:45.880Z,3.36
2023-07-28T14:31:35.028Z,3.21
2023-07-28T14:34:20.384Z,3.42
2023-07-28T14:37:05.302Z,3.18
2023-07-28T14:39:50.692Z,3.21
2023-07-28T14:42:36.131Z,3.40
2023-07-28T14:45:21.140Z,3.32
2023-07-28T14:48:06.296Z,3.36
2023-07-28T14:50:51.665Z,3.45
2023-07-28T14:53:37.062Z,3.48
2023-07-28T14:56:22.551Z,3.46
2023-07-28T14:59:08.011Z,3.41
2023-07-28T15:01:52.922Z,3.61
2023-07-28T15:04:38.058Z,3.26
2023-07-28T15:07:23.330Z,3.38
2023-07-28T15:10:09.071Z,3.07
2023-07-28T15:12:54.580Z,3.44
2023-07-28T15:15:39.957Z,3.56
2023-07-28T15:18:25.454Z,3.21
2023-07-28T15:21:10.885Z,3.32
2023-07-28T15:23:56.528Z,3.66
2023-07-28T15:26:41.791Z,4.03
2023-07-28T15:29:27.361Z,3.83
2023-07-28T15:32:12.820Z,4.29
2023-07-28T15:34:58.206Z,4.14
2023-07-28T15:37:43.689Z,4.08
2023-07-28T15:40:28.975Z,4.33
2023-07-28T15:43:14.368Z,4.05
2023-07-28T15:46:00.128Z,4.21
2023-07-28T15:48:45.562Z,4.09
2023-07-28T15:51:31.178Z,4.00
2023-07-28T15:54:16.508Z,4.15
2023-07-28T15:57:02.065Z,4.27
2023-07-28T15:59:47.016Z,3.91
2023-07-28T16:02:32.338Z,4.16
2023-07-28T16:05:17.807Z,3.77
2023-07-28T16:08:03.253Z,3.97
2023-07-28T16:10:48.878Z,3.93
2023-07-28T16:13:34.323Z,3.70
2023-07-28T16:16:19.829Z,3.76
2023-07-28T16:19:05.462Z,3.96
2023-07-28T16:21:50.757Z,3.66
2023-07-28T16:24:36.389Z,3.82
2023-07-28T16:27:21.949Z,3.83
2023-07-28T16:30:07.454Z,3.77
2023-07-28T16:32:52.890Z,3.51
2023-07-28T16:35:38.512Z,3.98
2023-07-28T16:38:23.891Z,3.77
2023-07-28T16:41:09.301Z,3.71
2023-07-28T16:43:54.750Z,3.78
2023-07-28T16:46:40.281Z,4.00
2023-07-28T16:49:25.782Z,3.90
2023-07-28T16:52:11.436Z,3.76
2023-07-28T16:54:56.869Z,3.55
2023-07-28T16:57:42.354Z,3.68
2023-07-28T17:00:27.768Z,3.59
2023-07-28T17:03:13.171Z,3.66
2023-07-28T17:05:58.554Z,3.77
2023-07-28T17:08:44.425Z,3.78
2023-07-28T17:11:30.996Z,3.87
2023-07-28T17:14:17.605Z,3.70
2023-07-28T17:17:02.675Z,3.73
2023-07-28T17:19:48.059Z,3.95
2023-07-28T17:22:33.789Z,3.95
2023-07-28T17:25:19.665Z,4.07
2023-07-28T17:28:05.466Z,3.88
2023-07-28T17:30:50.757Z,4.11
2023-07-28T17:33:36.260Z,4.04
2023-07-28T17:36:21.675Z,3.91
2023-07-28T17:39:07.647Z,3.82
2023-07-28T17:41:52.833Z,3.78
2023-07-28T17:44:38.211Z,3.87
2023-07-28T17:47:23.775Z,3.77
2023-07-28T17:50:09.165Z,3.84
2023-07-28T17:52:54.902Z,3.88
2023-07-28T17:55:40.192Z,3.87
2023-07-28T17:58:25.623Z,3.90
2023-07-28T18:01:10.558Z,3.88
2023-07-28T18:03:55.897Z,3.90
2023-07-28T18:06:41.333Z,3.98
2023-07-28T18:09:26.293Z,4.01
2023-07-28T18:12:11.932Z,3.82
2023-07-28T18:14:57.379Z,4.06
2023-07-28T18:17:42.825Z,3.70
2023-07-28T18:20:28.291Z,3.83
2023-07-28T18:23:13.626Z,3.95
2023-07-28T18:25:59.103Z,3.78
2023-07-28T18:28:44.284Z,3.62
2023-07-28T18:31:29.638Z,3.72
2023-07-28T18:34:14.590Z,3.71
2023-07-28T18:37:00.057Z,3.69
2023-07-28T18:39:45.505Z,3.90
2023-07-28T18:42:30.929Z,3.97
2023-07-28T18:45:16.205Z,3.94
2023-07-28T18:48:01.768Z,3.83
2023-07-28T18:50:47.049Z,3.84
2023-07-28T18:53:32.524Z,3.63
2023-07-28T18:56:17.794Z,3.85
2023-07-28T18:59:03.236Z,3.72
2023-07-28T19:01:48.711Z,4.01
2023-07-28T19:04:34.158Z,3.64
2023-07-28T19:07:19.884Z,3.89
2023-07-28T19:10:05.502Z,3.89
2023-07-28T19:12:51.185Z,3.86
2023-07-28T19:15:46.575Z,3.72
2023-07-28T19:18:32.762Z,3.80
2023-07-28T19:21:18.181Z,3.57
2023-07-28T19:24:03.713Z,3.83
2023-07-28T19:26:48.788Z,3.69
2023-07-28T19:29:34.423Z,3.79
2023-07-28T19:32:19.731Z,3.97
2023-07-28T19:35:05.073Z,3.96
2023-07-28T19:37:50.730Z,3.82
2023-07-28T19:40:36.187Z,3.61
2023-07-28T19:43:21.533Z,3.83
2023-07-28T19:46:07.203Z,3.79
2023-07-28T19:48:52.665Z,3.94
2023-07-28T19:51:38.152Z,4.01
2023-07-28T19:54:23.689Z,3.96
2023-07-28T19:57:09.166Z,4.01
2023-07-28T19:59:53.943Z,4.09
2023-07-28T20:02:39.409Z,4.04
2023-07-28T20:05:24.743Z,3.92
2023-07-28T20:08:10.259Z,4.01
2023-07-28T20:10:55.673Z,4.04
2023-07-28T20:13:41.178Z,4.17
2023-07-28T20:16:26.560Z,4.36
2023-07-28T20:19:12.107Z,4.26
2023-07-28T20:21:57.095Z,4.06
2023-07-28T20:24:42.239Z,4.13
2023-07-28T20:27:27.489Z,4.49
2023-07-28T20:30:12.487Z,4.34
2023-07-28T20:32:58.061Z,4.54
2023-07-28T20:35:43.284Z,4.73
2023-07-28T20:38:28.245Z,4.56
2023-07-28T20:41:13.140Z,4.49
2023-07-28T20:43:58.029Z,4.43
2023-07-28T20:46:43.072Z,4.49
2023-07-28T20:49:28.566Z,4.53
2023-07-28T20:52:14.185Z,4.47
2023-07-28T20:54:59.729Z,4.44
2023-07-28T20:57:45.312Z,4.27
2023-07-28T21:00:32.501Z,4.31
2023-07-28T21:03:18.482Z,4.32
2023-07-28T21:06:03.894Z,4.46
2023-07-28T21:08:48.862Z,4.52
2023-07-28T21:11:34.366Z,4.39
2023-07-28T21:14:19.830Z,4.34
2023-07-28T21:17:05.288Z,4.72
2023-07-28T21:19:50.776Z,4.61
2023-07-28T21:22:36.103Z,4.51
2023-07-28T21:25:21.584Z,4.39
2023-07-28T21:28:06.997Z,4.88
2023-07-28T21:30:52.429Z,4.63
2023-07-28T21:33:37.886Z,5.15
2023-07-28T21:36:22.894Z,4.97
2023-07-28T21:39:08.398Z,4.93
2023-07-28T21:41:54.223Z,5.55
2023-07-28T21:44:39.673Z,5.38
2023-07-28T21:47:24.715Z,5.17
2023-07-28T21:50:10.210Z,5.03
2023-07-28T21:52:55.893Z,4.82
2023-07-28T21:55:41.409Z,4.75
2023-07-28T21:58:26.823Z,4.86
2023-07-28T22:01:11.802Z,5.22
2023-07-28T22:03:57.428Z,5.06
2023-07-28T22:06:42.981Z,5.23
2023-07-28T22:09:28.232Z,4.83
2023-07-28T22:12:13.155Z,4.74
2023-07-28T22:14:58.041Z,4.66
2023-07-28T22:17:43.565Z,5.28
2023-07-28T22:20:29.978Z,4.88
2023-07-28T22:23:15.917Z,5.08
2023-07-28T22:26:01.261Z,5.15
2023-07-28T22:28:46.621Z,4.98
2023-07-28T22:31:31.673Z,5.13
2023-07-28T22:34:17.254Z,4.97
2023-07-28T22:37:03.179Z,5.19
2023-07-28T22:39:48.718Z,5.15
2023-07-28T22:42:34.291Z,5.04
2023-07-28T22:45:19.185Z,4.71
2023-07-28T22:48:04.650Z,4.89
2023-07-28T22:50:50.064Z,4.80
2023-07-28T22:53:36.772Z,4.91
2023-07-28T22:56:22.195Z,5.11
2023-07-28T22:59:07.340Z,5.06
2023-07-28T23:01:52.961Z,4.87
2023-07-28T23:04:38.524Z,4.56
2023-07-28T23:07:24.160Z,4.68
2023-07-28T23:10:09.582Z,4.48
2023-07-28T23:12:54.937Z,4.84
2023-07-28T23:15:40.299Z,5.11
2023-07-28T23:18:25.857Z,4.56
2023-07-28T23:21:11.469Z,4.82
2023-07-28T23:23:56.529Z,4.86
2023-07-28T23:26:42.037Z,4.76
2023-07-28T23:29:27.550Z,4.56
2023-07-28T23:32:13.056Z,4.58
2023-07-28T23:34:58.674Z,4.46
2023-07-28T23:37:43.920Z,4.63
2023-07-28T23:40:29.151Z,4.45
2023-07-28T23:43:14.517Z,4.61
2023-07-28T23:46:00.095Z,4.80
2023-07-28T23:48:45.461Z,4.85
2023-07-28T23:51:30.470Z,4.82
2023-07-28T23:54:19.126Z,4.66
2023-07-28T23:57:04.341Z,5.23
2023-07-28T23:59:49.746Z,5.60
